sensor_id;sensor_type;location;lat;lon;timestamp;temperature;humidity
22321;DHT22;11328;53.928;18.522;2023-11-21T00:01:16;1.70;99.90
22321;DHT22;11328;53.928;18.522;2023-11-21T00:03:44;1.60;99.90
22321;DHT22;11328;53.928;18.522;2023-11-21T00:06:11;1.60;99.90
22321;DHT22;11328;53.928;18.522;2023-11-21T00:08:38;1.70;99.90
22321;DHT22;11328;53.928;18.522;2023-11-21T00:11:05;1.60;99.90
22321;DHT22;11328;53.928;18.522;2023-11-21T00:13:33;1.60;99.90
22321;DHT22;11328;53.928;18.522;2023-11-21T00:16:00;1.60;99.90
22321;DHT22;11328;53.928;18.522;2023-11-21T00:18:27;1.70;99.90
22321;DHT22;11328;53.928;18.522;2023-11-21T00:20:54;1.70;99.90
22321;DHT22;11328;53.928;18.522;2023-11-21T00:23:21;1.60;99.90
22321;DHT22;11328;53.928;18.522;2023-11-21T00:25:48;1.70;99.90
22321;DHT22;11328;53.928;18.522;2023-11-21T00:28:15;1.60;99.90
22321;DHT22;11328;53.928;18.522;2023-11-21T00:30:43;1.60;99.90
22321;DHT22;11328;53.928;18.522;2023-11-21T00:33:10;1.60;99.90
22321;DHT22;11328;53.928;18.522;2023-11-21T00:35:37;1.70;99.90
22321;DHT22;11328;53.928;18.522;2023-11-21T00:38:04;1.60;99.90
22321;DHT22;11328;53.928;18.522;2023-11-21T00:40:31;1.60;99.90
22321;DHT22;11328;53.928;18.522;2023-11-21T00:42:58;1.60;99.90
22321;DHT22;11328;53.928;18.522;2023-11-21T00:45:27;1.60;99.90
22321;DHT22;11328;53.928;18.522;2023-11-21T00:47:54;1.50;99.90
22321;DHT22;11328;53.928;18.522;2023-11-21T00:50:21;1.50;99.90
22321;DHT22;11328;53.928;18.522;2023-11-21T00:52:49;1.60;99.90
22321;DHT22;11328;53.928;18.522;2023-11-21T00:55:18;1.60;99.90
22321;DHT22;11328;53.928;18.522;2023-11-21T00:57:45;1.60;99.90
22321;DHT22;11328;53.928;18.522;2023-11-21T01:00:12;1.60;99.90
22321;DHT22;11328;53.928;18.522;2023-11-21T01:02:44;1.60;99.90
22321;DHT22;11328;53.928;18.522;2023-11-21T01:05:11;1.50;99.90
22321;DHT22;11328;53.928;18.522;2023-11-21T01:07:39;1.50;99.90
22321;DHT22;11328;53.928;18.522;2023-11-21T01:10:06;1.50;99.90
22321;DHT22;11328;53.928;18.522;2023-11-21T01:12:36;1.50;99.90
22321;DHT22;11328;53.928;18.522;2023-11-21T01:15:05;1.60;99.90
22321;DHT22;11328;53.928;18.522;2023-11-21T01:17:38;1.60;99.90
22321;DHT22;11328;53.928;18.522;2023-11-21T01:20:07;1.60;99.90
22321;DHT22;11328;53.928;18.522;2023-11-21T01:22:39;1.50;99.90
22321;DHT22;11328;53.928;18.522;2023-11-21T01:25:07;1.50;99.90
22321;DHT22;11328;53.928;18.522;2023-11-21T01:27:34;1.50;99.90
22321;DHT22;11328;53.928;18.522;2023-11-21T01:30:03;1.50;99.90
22321;DHT22;11328;53.928;18.522;2023-11-21T01:32:31;1.50;99.90
22321;DHT22;11328;53.928;18.522;2023-11-21T01:34:59;1.40;99.90
22321;DHT22;11328;53.928;18.522;2023-11-21T01:37:26;1.50;99.90
22321;DHT22;11328;53.928;18.522;2023-11-21T01:39:54;1.40;99.90
22321;DHT22;11328;53.928;18.522;2023-11-21T01:42:22;1.50;99.90
22321;DHT22;11328;53.928;18.522;2023-11-21T01:44:50;1.50;99.90
22321;DHT22;11328;53.928;18.522;2023-11-21T01:47:17;1.40;99.90
22321;DHT22;11328;53.928;18.522;2023-11-21T01:49:45;1.40;99.90
22321;DHT22;11328;53.928;18.522;2023-11-21T01:52:13;1.50;99.90
22321;DHT22;11328;53.928;18.522;2023-11-21T01:54:41;1.50;99.90
22321;DHT22;11328;53.928;18.522;2023-11-21T01:57:09;1.50;99.90
22321;DHT22;11328;53.928;18.522;2023-11-21T01:59:38;1.50;99.90
22321;DHT22;11328;53.928;18.522;2023-11-21T02:02:09;1.50;99.90
22321;DHT22;11328;53.928;18.522;2023-11-21T02:04:37;1.60;99.90
22321;DHT22;11328;53.928;18.522;2023-11-21T02:07:04;1.50;99.90
22321;DHT22;11328;53.928;18.522;2023-11-21T02:09:35;1.60;99.90
22321;DHT22;11328;53.928;18.522;2023-11-21T02:12:05;1.60;99.90
22321;DHT22;11328;53.928;18.522;2023-11-21T02:14:32;1.60;99.90
22321;DHT22;11328;53.928;18.522;2023-11-21T02:17:00;1.60;99.90
22321;DHT22;11328;53.928;18.522;2023-11-21T02:19:28;1.60;99.90
22321;DHT22;11328;53.928;18.522;2023-11-21T02:21:57;1.70;99.90
22321;DHT22;11328;53.928;18.522;2023-11-21T02:24:27;1.70;99.90
22321;DHT22;11328;53.928;18.522;2023-11-21T02:26:54;1.70;99.90
22321;DHT22;11328;53.928;18.522;2023-11-21T02:29:21;1.70;99.90
22321;DHT22;11328;53.928;18.522;2023-11-21T02:31:52;1.70;99.90
22321;DHT22;11328;53.928;18.522;2023-11-21T02:34:22;1.70;99.90
22321;DHT22;11328;53.928;18.522;2023-11-21T02:36:52;1.70;99.90
22321;DHT22;11328;53.928;18.522;2023-11-21T02:39:20;1.70;99.90
22321;DHT22;11328;53.928;18.522;2023-11-21T02:41:49;1.70;99.90
22321;DHT22;11328;53.928;18.522;2023-11-21T02:44:16;1.80;99.90
22321;DHT22;11328;53.928;18.522;2023-11-21T02:46:44;1.90;99.90
22321;DHT22;11328;53.928;18.522;2023-11-21T02:49:11;1.80;99.90
22321;DHT22;11328;53.928;18.522;2023-11-21T02:51:38;1.80;99.90
22321;DHT22;11328;53.928;18.522;2023-11-21T02:54:06;1.80;99.90
22321;DHT22;11328;53.928;18.522;2023-11-21T02:56:35;1.80;99.90
22321;DHT22;11328;53.928;18.522;2023-11-21T02:59:02;1.70;99.90
22321;DHT22;11328;53.928;18.522;2023-11-21T03:01:29;1.60;99.90
22321;DHT22;11328;53.928;18.522;2023-11-21T03:03:56;1.60;99.90
22321;DHT22;11328;53.928;18.522;2023-11-21T03:06:23;1.70;99.90
22321;DHT22;11328;53.928;18.522;2023-11-21T03:08:51;1.80;99.90
22321;DHT22;11328;53.928;18.522;2023-11-21T03:11:18;1.70;99.90
22321;DHT22;11328;53.928;18.522;2023-11-21T03:13:45;1.70;99.90
22321;DHT22;11328;53.928;18.522;2023-11-21T03:16:12;1.70;99.90
22321;DHT22;11328;53.928;18.522;2023-11-21T03:18:40;1.80;99.90
22321;DHT22;11328;53.928;18.522;2023-11-21T03:21:08;1.80;99.90
22321;DHT22;11328;53.928;18.522;2023-11-21T03:23:36;1.80;99.90
22321;DHT22;11328;53.928;18.522;2023-11-21T03:26:04;1.70;99.90
22321;DHT22;11328;53.928;18.522;2023-11-21T03:28:31;1.80;99.90
22321;DHT22;11328;53.928;18.522;2023-11-21T03:30:58;1.80;99.90
22321;DHT22;11328;53.928;18.522;2023-11-21T03:33:25;1.80;99.90
22321;DHT22;11328;53.928;18.522;2023-11-21T03:35:52;1.70;99.90
22321;DHT22;11328;53.928;18.522;2023-11-21T03:38:19;1.80;99.90
22321;DHT22;11328;53.928;18.522;2023-11-21T03:40:47;1.80;99.90
22321;DHT22;11328;53.928;18.522;2023-11-21T03:43:14;1.90;99.90
22321;DHT22;11328;53.928;18.522;2023-11-21T03:45:42;2.00;99.90
22321;DHT22;11328;53.928;18.522;2023-11-21T03:48:09;2.00;99.90
22321;DHT22;11328;53.928;18.522;2023-11-21T03:50:38;2.00;99.90
22321;DHT22;11328;53.928;18.522;2023-11-21T03:53:05;2.00;99.90
22321;DHT22;11328;53.928;18.522;2023-11-21T03:55:32;2.00;99.90
22321;DHT22;11328;53.928;18.522;2023-11-21T03:57:59;1.90;99.90
22321;DHT22;11328;53.928;18.522;2023-11-21T04:00:28;1.80;99.90
22321;DHT22;11328;53.928;18.522;2023-11-21T04:02:55;1.80;99.90
22321;DHT22;11328;53.928;18.522;2023-11-21T04:05:23;1.70;99.90
22321;DHT22;11328;53.928;18.522;2023-11-21T04:07:51;1.60;99.90
22321;DHT22;11328;53.928;18.522;2023-11-21T04:10:18;1.60;99.90
22321;DHT22;11328;53.928;18.522;2023-11-21T04:12:45;1.60;99.90
22321;DHT22;11328;53.928;18.522;2023-11-21T04:15:13;1.60;99.90
22321;DHT22;11328;53.928;18.522;2023-11-21T04:17:41;1.60;99.90
22321;DHT22;11328;53.928;18.522;2023-11-21T04:20:09;1.60;99.90
22321;DHT22;11328;53.928;18.522;2023-11-21T04:22:40;1.60;99.90
22321;DHT22;11328;53.928;18.522;2023-11-21T04:25:13;1.60;99.90
22321;DHT22;11328;53.928;18.522;2023-11-21T04:27:42;1.70;99.90
22321;DHT22;11328;53.928;18.522;2023-11-21T04:30:11;1.70;99.90
22321;DHT22;11328;53.928;18.522;2023-11-21T04:32:40;1.70;99.90
22321;DHT22;11328;53.928;18.522;2023-11-21T04:35:09;1.70;99.90
22321;DHT22;11328;53.928;18.522;2023-11-21T04:37:36;1.70;99.90
22321;DHT22;11328;53.928;18.522;2023-11-21T04:40:04;1.80;99.90
22321;DHT22;11328;53.928;18.522;2023-11-21T04:42:36;1.70;99.90
22321;DHT22;11328;53.928;18.522;2023-11-21T04:45:07;1.80;99.90
22321;DHT22;11328;53.928;18.522;2023-11-21T04:47:36;1.80;99.90
22321;DHT22;11328;53.928;18.522;2023-11-21T04:50:04;1.70;99.90
22321;DHT22;11328;53.928;18.522;2023-11-21T04:52:32;1.70;99.90
22321;DHT22;11328;53.928;18.522;2023-11-21T04:55:00;1.70;99.90
22321;DHT22;11328;53.928;18.522;2023-11-21T04:57:28;1.70;99.90
22321;DHT22;11328;53.928;18.522;2023-11-21T04:59:55;1.60;99.90
22321;DHT22;11328;53.928;18.522;2023-11-21T05:02:23;1.70;99.90
22321;DHT22;11328;53.928;18.522;2023-11-21T05:05:02;1.70;99.90
22321;DHT22;11328;53.928;18.522;2023-11-21T05:07:29;1.70;99.90
22321;DHT22;11328;53.928;18.522;2023-11-21T05:09:58;1.70;99.90
22321;DHT22;11328;53.928;18.522;2023-11-21T05:12:25;1.60;99.90
22321;DHT22;11328;53.928;18.522;2023-11-21T05:14:52;1.60;99.90
22321;DHT22;11328;53.928;18.522;2023-11-21T05:17:19;1.50;99.90
22321;DHT22;11328;53.928;18.522;2023-11-21T05:19:46;1.50;99.90
22321;DHT22;11328;53.928;18.522;2023-11-21T05:22:16;1.40;99.90
22321;DHT22;11328;53.928;18.522;2023-11-21T05:24:43;1.40;99.90
22321;DHT22;11328;53.928;18.522;2023-11-21T05:27:10;1.40;99.90
22321;DHT22;11328;53.928;18.522;2023-11-21T05:29:37;1.40;99.90
22321;DHT22;11328;53.928;18.522;2023-11-21T05:32:04;1.40;99.90
22321;DHT22;11328;53.928;18.522;2023-11-21T05:34:32;1.40;99.90
22321;DHT22;11328;53.928;18.522;2023-11-21T05:36:59;1.50;99.90
22321;DHT22;11328;53.928;18.522;2023-11-21T05:39:26;1.40;99.90
22321;DHT22;11328;53.928;18.522;2023-11-21T05:41:54;1.40;99.90
22321;DHT22;11328;53.928;18.522;2023-11-21T05:44:22;1.40;99.90
22321;DHT22;11328;53.928;18.522;2023-11-21T05:46:50;1.50;99.90
22321;DHT22;11328;53.928;18.522;2023-11-21T05:49:17;1.50;99.90
22321;DHT22;11328;53.928;18.522;2023-11-21T05:51:48;1.50;99.90
22321;DHT22;11328;53.928;18.522;2023-11-21T05:54:15;1.50;99.90
22321;DHT22;11328;53.928;18.522;2023-11-21T05:56:43;1.50;99.90
22321;DHT22;11328;53.928;18.522;2023-11-21T05:59:11;1.50;99.90
22321;DHT22;11328;53.928;18.522;2023-11-21T06:01:38;1.50;99.90
22321;DHT22;11328;53.928;18.522;2023-11-21T06:04:05;1.50;99.90
22321;DHT22;11328;53.928;18.522;2023-11-21T06:06:35;1.50;99.90
22321;DHT22;11328;53.928;18.522;2023-11-21T06:09:03;1.60;99.90
22321;DHT22;11328;53.928;18.522;2023-11-21T06:11:30;1.60;99.90
22321;DHT22;11328;53.928;18.522;2023-11-21T06:13:57;1.60;99.90
22321;DHT22;11328;53.928;18.522;2023-11-21T06:16:24;1.60;99.90
22321;DHT22;11328;53.928;18.522;2023-11-21T06:18:52;1.60;99.90
22321;DHT22;11328;53.928;18.522;2023-11-21T06:21:19;1.60;99.90
22321;DHT22;11328;53.928;18.522;2023-11-21T06:23:46;1.60;99.90
22321;DHT22;11328;53.928;18.522;2023-11-21T06:26:13;1.60;99.90
22321;DHT22;11328;53.928;18.522;2023-11-21T06:28:41;1.60;99.90
22321;DHT22;11328;53.928;18.522;2023-11-21T06:31:08;1.60;99.90
22321;DHT22;11328;53.928;18.522;2023-11-21T06:33:35;1.50;99.90
22321;DHT22;11328;53.928;18.522;2023-11-21T06:36:02;1.40;99.90
22321;DHT22;11328;53.928;18.522;2023-11-21T06:38:29;1.50;99.90
22321;DHT22;11328;53.928;18.522;2023-11-21T06:40:58;1.50;99.90
22321;DHT22;11328;53.928;18.522;2023-11-21T06:43:29;1.50;99.90
22321;DHT22;11328;53.928;18.522;2023-11-21T06:45:58;1.50;99.90
22321;DHT22;11328;53.928;18.522;2023-11-21T06:48:25;1.50;99.90
22321;DHT22;11328;53.928;18.522;2023-11-21T06:50:52;1.60;99.90
22321;DHT22;11328;53.928;18.522;2023-11-21T06:53:19;1.60;99.90
22321;DHT22;11328;53.928;18.522;2023-11-21T06:55:46;1.60;99.90
22321;DHT22;11328;53.928;18.522;2023-11-21T06:58:13;1.60;99.90
22321;DHT22;11328;53.928;18.522;2023-11-21T07:00:41;1.60;99.90
22321;DHT22;11328;53.928;18.522;2023-11-21T07:03:13;1.50;99.90
22321;DHT22;11328;53.928;18.522;2023-11-21T07:05:40;1.40;99.90
22321;DHT22;11328;53.928;18.522;2023-11-21T07:08:07;1.30;99.90
22321;DHT22;11328;53.928;18.522;2023-11-21T07:10:35;1.40;99.90
22321;DHT22;11328;53.928;18.522;2023-11-21T07:13:03;1.50;99.90
22321;DHT22;11328;53.928;18.522;2023-11-21T07:15:30;1.50;99.90
22321;DHT22;11328;53.928;18.522;2023-11-21T07:17:57;1.50;99.90
22321;DHT22;11328;53.928;18.522;2023-11-21T07:20:25;1.50;99.90
22321;DHT22;11328;53.928;18.522;2023-11-21T07:22:52;1.50;99.90
22321;DHT22;11328;53.928;18.522;2023-11-21T07:25:19;1.60;99.90
22321;DHT22;11328;53.928;18.522;2023-11-21T07:27:46;1.50;99.90
22321;DHT22;11328;53.928;18.522;2023-11-21T07:30:13;1.60;99.90
22321;DHT22;11328;53.928;18.522;2023-11-21T07:32:40;1.70;99.90
22321;DHT22;11328;53.928;18.522;2023-11-21T07:35:08;1.70;99.90
22321;DHT22;11328;53.928;18.522;2023-11-21T07:37:35;1.70;99.90
22321;DHT22;11328;53.928;18.522;2023-11-21T07:40:02;1.70;99.90
22321;DHT22;11328;53.928;18.522;2023-11-21T07:42:30;1.60;99.90
22321;DHT22;11328;53.928;18.522;2023-11-21T07:44:57;1.60;99.90
22321;DHT22;11328;53.928;18.522;2023-11-21T07:47:24;1.70;99.90
22321;DHT22;11328;53.928;18.522;2023-11-21T07:49:54;1.70;99.90
22321;DHT22;11328;53.928;18.522;2023-11-21T07:52:23;1.60;99.90
22321;DHT22;11328;53.928;18.522;2023-11-21T07:54:50;1.70;99.90
22321;DHT22;11328;53.928;18.522;2023-11-21T07:57:17;1.60;99.90
22321;DHT22;11328;53.928;18.522;2023-11-21T07:59:44;1.50;99.90
22321;DHT22;11328;53.928;18.522;2023-11-21T08:02:11;1.60;99.90
22321;DHT22;11328;53.928;18.522;2023-11-21T08:04:39;1.60;99.90
22321;DHT22;11328;53.928;18.522;2023-11-21T08:07:06;1.60;99.90
22321;DHT22;11328;53.928;18.522;2023-11-21T08:09:33;1.60;99.90
22321;DHT22;11328;53.928;18.522;2023-11-21T08:12:01;1.60;99.90
22321;DHT22;11328;53.928;18.522;2023-11-21T08:14:29;1.70;99.90
22321;DHT22;11328;53.928;18.522;2023-11-21T08:16:56;1.70;99.90
22321;DHT22;11328;53.928;18.522;2023-11-21T08:19:26;1.70;99.90
22321;DHT22;11328;53.928;18.522;2023-11-21T08:21:54;1.70;99.90
22321;DHT22;11328;53.928;18.522;2023-11-21T08:24:21;1.70;99.90
22321;DHT22;11328;53.928;18.522;2023-11-21T08:26:48;1.60;99.90
22321;DHT22;11328;53.928;18.522;2023-11-21T08:29:16;1.60;99.90
22321;DHT22;11328;53.928;18.522;2023-11-21T08:31:43;1.70;99.90
22321;DHT22;11328;53.928;18.522;2023-11-21T08:34:13;1.60;99.90
22321;DHT22;11328;53.928;18.522;2023-11-21T08:36:45;1.60;99.90
22321;DHT22;11328;53.928;18.522;2023-11-21T08:39:12;1.60;99.90
22321;DHT22;11328;53.928;18.522;2023-11-21T08:41:40;1.50;99.90
22321;DHT22;11328;53.928;18.522;2023-11-21T08:44:08;1.40;99.90
22321;DHT22;11328;53.928;18.522;2023-11-21T08:46:35;1.40;99.90
22321;DHT22;11328;53.928;18.522;2023-11-21T08:49:04;1.40;99.90
22321;DHT22;11328;53.928;18.522;2023-11-21T08:51:32;1.40;99.90
22321;DHT22;11328;53.928;18.522;2023-11-21T08:53:59;1.30;99.90
22321;DHT22;11328;53.928;18.522;2023-11-21T08:56:31;1.40;99.90
22321;DHT22;11328;53.928;18.522;2023-11-21T08:58:58;1.40;99.90
22321;DHT22;11328;53.928;18.522;2023-11-21T09:01:27;1.40;99.90
22321;DHT22;11328;53.928;18.522;2023-11-21T09:03:54;1.40;99.90
22321;DHT22;11328;53.928;18.522;2023-11-21T09:06:21;1.40;99.90
22321;DHT22;11328;53.928;18.522;2023-11-21T09:08:48;1.40;99.90
22321;DHT22;11328;53.928;18.522;2023-11-21T09:11:18;1.40;99.90
22321;DHT22;11328;53.928;18.522;2023-11-21T09:13:45;1.50;99.90
22321;DHT22;11328;53.928;18.522;2023-11-21T09:16:14;1.50;99.90
22321;DHT22;11328;53.928;18.522;2023-11-21T09:18:42;1.50;99.90
22321;DHT22;11328;53.928;18.522;2023-11-21T09:21:09;1.50;99.90
22321;DHT22;11328;53.928;18.522;2023-11-21T09:23:36;1.50;99.90
22321;DHT22;11328;53.928;18.522;2023-11-21T09:26:04;1.50;99.90
22321;DHT22;11328;53.928;18.522;2023-11-21T09:28:32;1.60;99.90
22321;DHT22;11328;53.928;18.522;2023-11-21T09:30:59;1.60;99.90
22321;DHT22;11328;53.928;18.522;2023-11-21T09:33:26;1.60;99.90
22321;DHT22;11328;53.928;18.522;2023-11-21T09:35:53;1.60;99.90
22321;DHT22;11328;53.928;18.522;2023-11-21T09:38:20;1.70;99.90
22321;DHT22;11328;53.928;18.522;2023-11-21T09:40:48;1.70;99.90
22321;DHT22;11328;53.928;18.522;2023-11-21T09:43:17;1.80;99.90
22321;DHT22;11328;53.928;18.522;2023-11-21T09:45:56;1.80;99.90
22321;DHT22;11328;53.928;18.522;2023-11-21T09:48:26;1.80;99.90
22321;DHT22;11328;53.928;18.522;2023-11-21T12:49:46;0.10;99.90
22321;DHT22;11328;53.928;18.522;2023-11-21T12:52:15;1.90;99.90
22321;DHT22;11328;53.928;18.522;2023-11-21T12:54:42;1.90;99.90
22321;DHT22;11328;53.928;18.522;2023-11-21T12:57:10;2.10;99.90
22321;DHT22;11328;53.928;18.522;2023-11-21T12:59:39;2.20;99.90
22321;DHT22;11328;53.928;18.522;2023-11-21T13:02:06;2.30;99.90
22321;DHT22;11328;53.928;18.522;2023-11-21T13:04:33;2.30;99.90
22321;DHT22;11328;53.928;18.522;2023-11-21T13:07:05;2.40;99.90
22321;DHT22;11328;53.928;18.522;2023-11-21T13:09:41;2.40;99.90
22321;DHT22;11328;53.928;18.522;2023-11-21T13:12:08;2.50;99.90
22321;DHT22;11328;53.928;18.522;2023-11-21T13:14:37;2.40;99.90
22321;DHT22;11328;53.928;18.522;2023-11-21T13:17:04;2.40;99.90
22321;DHT22;11328;53.928;18.522;2023-11-21T13:19:31;2.50;99.90
22321;DHT22;11328;53.928;18.522;2023-11-21T13:21:58;2.50;99.90
22321;DHT22;11328;53.928;18.522;2023-11-21T13:24:28;2.50;99.90
22321;DHT22;11328;53.928;18.522;2023-11-21T13:26:55;2.40;99.90
22321;DHT22;11328;53.928;18.522;2023-11-21T13:29:22;2.40;99.90
22321;DHT22;11328;53.928;18.522;2023-11-21T13:31:49;2.40;99.90
22321;DHT22;11328;53.928;18.522;2023-11-21T13:34:17;2.40;99.90
22321;DHT22;11328;53.928;18.522;2023-11-21T13:36:49;2.30;99.90
22321;DHT22;11328;53.928;18.522;2023-11-21T13:39:22;2.30;99.90
22321;DHT22;11328;53.928;18.522;2023-11-21T13:41:49;2.30;99.90
22321;DHT22;11328;53.928;18.522;2023-11-21T13:44:21;2.20;99.90
22321;DHT22;11328;53.928;18.522;2023-11-21T13:47:01;2.20;99.90
22321;DHT22;11328;53.928;18.522;2023-11-21T13:49:28;2.20;99.90
22321;DHT22;11328;53.928;18.522;2023-11-21T13:51:58;2.20;99.90
22321;DHT22;11328;53.928;18.522;2023-11-21T13:54:26;2.20;99.90
22321;DHT22;11328;53.928;18.522;2023-11-21T13:56:53;2.20;99.90
22321;DHT22;11328;53.928;18.522;2023-11-21T13:59:22;2.20;99.90
22321;DHT22;11328;53.928;18.522;2023-11-21T14:01:59;2.30;99.90
22321;DHT22;11328;53.928;18.522;2023-11-21T14:04:27;2.30;99.90
22321;DHT22;11328;53.928;18.522;2023-11-21T14:06:57;2.30;99.90
22321;DHT22;11328;53.928;18.522;2023-11-21T14:09:27;2.30;99.90
22321;DHT22;11328;53.928;18.522;2023-11-21T14:12:10;2.20;99.90
22321;DHT22;11328;53.928;18.522;2023-11-21T14:14:39;2.20;99.90
22321;DHT22;11328;53.928;18.522;2023-11-21T14:17:06;2.20;99.90
22321;DHT22;11328;53.928;18.522;2023-11-21T14:19:34;2.20;99.90
22321;DHT22;11328;53.928;18.522;2023-11-21T14:22:05;2.30;99.90
22321;DHT22;11328;53.928;18.522;2023-11-21T14:24:37;2.20;99.90
22321;DHT22;11328;53.928;18.522;2023-11-21T14:27:04;2.20;99.90
22321;DHT22;11328;53.928;18.522;2023-11-21T14:29:32;2.10;99.90
22321;DHT22;11328;53.928;18.522;2023-11-21T14:32:05;2.10;99.90
22321;DHT22;11328;53.928;18.522;2023-11-21T14:34:33;2.10;99.90
22321;DHT22;11328;53.928;18.522;2023-11-21T14:37:00;2.00;99.90
22321;DHT22;11328;53.928;18.522;2023-11-21T14:43:39;2.00;99.90
22321;DHT22;11328;53.928;18.522;2023-11-21T14:46:07;1.80;99.90
22321;DHT22;11328;53.928;18.522;2023-11-21T14:48:36;1.80;99.90
22321;DHT22;11328;53.928;18.522;2023-11-21T14:51:10;1.70;99.90
22321;DHT22;11328;53.928;18.522;2023-11-21T14:53:49;1.70;99.90
22321;DHT22;11328;53.928;18.522;2023-11-21T14:56:29;1.60;99.90
22321;DHT22;11328;53.928;18.522;2023-11-21T14:58:58;1.60;99.90
22321;DHT22;11328;53.928;18.522;2023-11-21T15:01:33;1.50;99.90
22321;DHT22;11328;53.928;18.522;2023-11-21T15:04:10;1.50;99.90
22321;DHT22;11328;53.928;18.522;2023-11-21T15:06:57;1.50;99.90
22321;DHT22;11328;53.928;18.522;2023-11-21T15:09:25;1.60;99.90
22321;DHT22;11328;53.928;18.522;2023-11-21T15:11:58;1.50;99.90
22321;DHT22;11328;53.928;18.522;2023-11-21T15:14:38;1.60;99.90
22321;DHT22;11328;53.928;18.522;2023-11-21T15:17:05;1.50;99.90
22321;DHT22;11328;53.928;18.522;2023-11-21T15:19:33;1.50;99.90
22321;DHT22;11328;53.928;18.522;2023-11-21T15:22:02;1.50;99.90
22321;DHT22;11328;53.928;18.522;2023-11-21T15:24:30;1.50;99.90
22321;DHT22;11328;53.928;18.522;2023-11-21T15:26:57;1.50;99.90
22321;DHT22;11328;53.928;18.522;2023-11-21T15:29:24;1.40;99.90
22321;DHT22;11328;53.928;18.522;2023-11-21T15:31:52;1.50;99.90
22321;DHT22;11328;53.928;18.522;2023-11-21T15:34:23;1.50;99.90
22321;DHT22;11328;53.928;18.522;2023-11-21T15:36:50;1.50;99.90
22321;DHT22;11328;53.928;18.522;2023-11-21T15:39:20;1.40;99.90
22321;DHT22;11328;53.928;18.522;2023-11-21T15:41:55;1.40;99.90
22321;DHT22;11328;53.928;18.522;2023-11-21T15:44:26;1.40;99.90
22321;DHT22;11328;53.928;18.522;2023-11-21T15:46:54;1.40;99.90
22321;DHT22;11328;53.928;18.522;2023-11-21T15:49:22;1.50;99.90
22321;DHT22;11328;53.928;18.522;2023-11-21T15:51:50;1.50;99.90
22321;DHT22;11328;53.928;18.522;2023-11-21T15:54:22;1.40;99.90
22321;DHT22;11328;53.928;18.522;2023-11-21T15:56:52;1.40;99.90
22321;DHT22;11328;53.928;18.522;2023-11-21T15:59:24;1.30;99.90
22321;DHT22;11328;53.928;18.522;2023-11-21T16:01:56;1.30;99.90
22321;DHT22;11328;53.928;18.522;2023-11-21T16:04:24;1.20;99.90
22321;DHT22;11328;53.928;18.522;2023-11-21T16:06:54;1.20;99.90
22321;DHT22;11328;53.928;18.522;2023-11-21T16:09:21;1.20;99.90
22321;DHT22;11328;53.928;18.522;2023-11-21T16:11:50;1.10;99.90
22321;DHT22;11328;53.928;18.522;2023-11-21T16:14:25;1.00;99.90
22321;DHT22;11328;53.928;18.522;2023-11-21T16:16:56;1.00;99.90
22321;DHT22;11328;53.928;18.522;2023-11-21T16:19:24;1.00;99.90
22321;DHT22;11328;53.928;18.522;2023-11-21T16:21:51;1.00;99.90
22321;DHT22;11328;53.928;18.522;2023-11-21T16:24:19;1.00;99.90
22321;DHT22;11328;53.928;18.522;2023-11-21T16:26:48;1.00;99.90
22321;DHT22;11328;53.928;18.522;2023-11-21T16:29:15;1.00;99.90
22321;DHT22;11328;53.928;18.522;2023-11-21T16:31:43;1.00;99.90
22321;DHT22;11328;53.928;18.522;2023-11-21T16:34:15;0.90;99.90
22321;DHT22;11328;53.928;18.522;2023-11-21T16:36:47;0.90;99.90
22321;DHT22;11328;53.928;18.522;2023-11-21T16:39:18;0.90;99.90
22321;DHT22;11328;53.928;18.522;2023-11-21T16:41:48;0.80;99.90
22321;DHT22;11328;53.928;18.522;2023-11-21T16:44:19;0.80;99.90
22321;DHT22;11328;53.928;18.522;2023-11-21T16:46:49;0.90;99.90
22321;DHT22;11328;53.928;18.522;2023-11-21T16:49:20;0.90;99.90
22321;DHT22;11328;53.928;18.522;2023-11-21T16:51:47;0.80;99.90
22321;DHT22;11328;53.928;18.522;2023-11-21T16:54:15;0.80;99.90
22321;DHT22;11328;53.928;18.522;2023-11-21T16:56:43;0.80;99.90
22321;DHT22;11328;53.928;18.522;2023-11-21T16:59:14;0.80;99.90
22321;DHT22;11328;53.928;18.522;2023-11-21T17:01:42;0.70;99.90
22321;DHT22;11328;53.928;18.522;2023-11-21T17:04:15;0.70;99.90
22321;DHT22;11328;53.928;18.522;2023-11-21T17:06:42;0.70;99.90
22321;DHT22;11328;53.928;18.522;2023-11-21T17:09:11;0.60;99.90
22321;DHT22;11328;53.928;18.522;2023-11-21T17:11:41;0.60;99.90
22321;DHT22;11328;53.928;18.522;2023-11-21T17:14:09;0.60;99.90
22321;DHT22;11328;53.928;18.522;2023-11-21T17:16:37;0.60;99.90
22321;DHT22;11328;53.928;18.522;2023-11-21T17:19:08;0.70;99.90
22321;DHT22;11328;53.928;18.522;2023-11-21T17:21:35;0.60;99.90
22321;DHT22;11328;53.928;18.522;2023-11-21T17:24:03;0.70;99.90
22321;DHT22;11328;53.928;18.522;2023-11-21T17:26:31;0.70;99.90
22321;DHT22;11328;53.928;18.522;2023-11-21T17:28:58;0.60;99.90
22321;DHT22;11328;53.928;18.522;2023-11-21T17:31:26;0.60;99.90
22321;DHT22;11328;53.928;18.522;2023-11-21T17:33:54;0.50;99.90
22321;DHT22;11328;53.928;18.522;2023-11-21T17:36:21;0.60;99.90
22321;DHT22;11328;53.928;18.522;2023-11-21T17:38:49;0.60;99.90
22321;DHT22;11328;53.928;18.522;2023-11-21T17:41:21;0.50;99.90
22321;DHT22;11328;53.928;18.522;2023-11-21T17:43:49;0.50;99.90
22321;DHT22;11328;53.928;18.522;2023-11-21T17:46:23;0.40;99.90
22321;DHT22;11328;53.928;18.522;2023-11-21T17:48:50;0.40;99.90
22321;DHT22;11328;53.928;18.522;2023-11-21T17:51:20;0.30;99.90
22321;DHT22;11328;53.928;18.522;2023-11-21T17:53:48;0.30;99.90
22321;DHT22;11328;53.928;18.522;2023-11-21T17:56:16;0.40;99.90
22321;DHT22;11328;53.928;18.522;2023-11-21T17:58:46;0.30;99.90
22321;DHT22;11328;53.928;18.522;2023-11-21T18:01:13;0.30;99.90
22321;DHT22;11328;53.928;18.522;2023-11-21T18:03:40;0.30;99.90
22321;DHT22;11328;53.928;18.522;2023-11-21T18:06:10;0.30;99.90
22321;DHT22;11328;53.928;18.522;2023-11-21T18:08:37;0.20;99.90
22321;DHT22;11328;53.928;18.522;2023-11-21T18:11:07;0.20;99.90
22321;DHT22;11328;53.928;18.522;2023-11-21T18:13:34;0.20;99.90
22321;DHT22;11328;53.928;18.522;2023-11-21T18:16:01;0.30;99.90
22321;DHT22;11328;53.928;18.522;2023-11-21T18:18:29;0.30;99.90
22321;DHT22;11328;53.928;18.522;2023-11-21T18:20:56;0.20;99.90
22321;DHT22;11328;53.928;18.522;2023-11-21T18:23:23;0.20;99.90
22321;DHT22;11328;53.928;18.522;2023-11-21T18:25:50;0.20;99.90
22321;DHT22;11328;53.928;18.522;2023-11-21T18:28:17;0.10;99.90
22321;DHT22;11328;53.928;18.522;2023-11-21T18:30:45;0.20;99.90
22321;DHT22;11328;53.928;18.522;2023-11-21T18:33:12;0.20;99.90
22321;DHT22;11328;53.928;18.522;2023-11-21T18:35:41;0.20;99.90
22321;DHT22;11328;53.928;18.522;2023-11-21T18:38:08;0.20;99.90
22321;DHT22;11328;53.928;18.522;2023-11-21T18:40:37;0.20;99.90